METAR AND TAF INFORMATION
METAR FOR UUWW
ADDS - METARS form results

(0642 UTC 25 May 2020)
Data provider http://aviationweather.gov/metar/data/
 
METAR text: UUWW 250630Z 22004MPS CAVOK 13/06 Q1020 R24/190060 NOSIG
Conditions at: UUWW (MOSCOW/VNUKOVO , RU) observed 0630 UTC 25 May 2020
Temperature: 13.0°C (55°F)
Dewpoint: 6.0°C (43°F) [RH = 62%]
Pressure (altimeter): 30.12 inches Hg (1020.0 mb)
Winds: from the SW (220 degrees) at 9 MPH (8 knots; 4.1 m/s)
Visibility: 6 or more miles (10+ km)
Ceiling: ceiling and visibility are OK
Clouds: unknown
Weather: no significant weather observed at this time

METAR text: UUWW 250600Z 22003MPS CAVOK 11/07 Q1020 R24/190060 NOSIG
Conditions at: UUWW (MOSCOW/VNUKOVO , RU) observed 0600 UTC 25 May 2020
Temperature: 11.0°C (52°F)
Dewpoint: 7.0°C (45°F) [RH = 76%]
Pressure (altimeter): 30.12 inches Hg (1020.0 mb)
Winds: from the SW (220 degrees) at 7 MPH (6 knots; 3.1 m/s)
Visibility: 6 or more miles (10+ km)
Ceiling: ceiling and visibility are OK
Clouds: unknown
Weather: no significant weather observed at this time

Forecast for: UUWW (MOSCOW/VNUKOVO , RU)
Text: TAF UUWW 250455Z 2506/2606 21003G08MPS 9999 SCT020 TX16/2512Z TN07/2602Z
Forecast period: 0600 to 1600 UTC 25 May 2020
Forecast type: FROM: standard forecast or significant change
Winds: from the SSW (210 degrees) at 7 MPH (6 knots; 3.1 m/s)
gusting to 18 MPH (16 knots; 8.2 m/s)
Visibility: 6 or more miles 10+ km)
Ceiling: at least 12,000 feet AGL
Clouds: scattered clouds at 2000 feet AGL
Weather: no significant weather forecast for this period
Text: BECMG 2516/2518 VRB01MPS
Forecast period: 1600 UTC 25 May 2020 to 0600 UTC 26 May 2020
Forecast type: BECOMING: Conditions expected to become as follows by 1800 UTC 25 May 2020
Winds: variable direction winds at 2 MPH (2 knots; 1.0 m/s)
Visibility: 6 or more miles 10+ km)
Ceiling: at least 12,000 feet AGL
Clouds: scattered clouds at 2000 feet AGL
Weather: no significant weather forecast for this period

 AIRPORT MAP

 RUNWAY INFORMATION
Runway 01 Runway length 10039 ft Runway width 148 ft
Runway elevation 633 ft Runway displaced threshold 0 ft Runway heading 14
Runway 19 Runway length 10039 ft Runway width 148 ft
Runway elevation 634 ft Runway displaced threshold 0 ft Runway heading 194
Runway 06 Runway length 9842 ft Runway width 197 ft
Runway elevation 637 ft Runway displaced threshold 0 ft Runway heading 68
Runway 24 Runway length 9842 ft Runway width 197 ft
Runway elevation 680 ft Runway displaced threshold 0 ft Runway heading 248

 AIRPORT FREQUENCIES
Type APP Name APP Frequency 122.3 MHZ
Type ATIS Name ATIS Frequency 125.875 MHZ
Type GND Name TAXIING Frequency 120.45 MHZ
Type RDR Name RADAR Frequency 126 MHZ
Type TWR Name TWR Frequency 118.3 MHZ

 AIRPORT NEAR NAVIGATION AIDS
Type NDB Name Vnukovo Frequency 290 KHZ
Type NDB Name Vnukovo Frequency 290 KHZ
Type NDB Name Vnukovo Frequency 468 KHZ
Type NDB Name Vnukovo Frequency 468 KHZ